sensor_id;sensor_type;location;lat;lon;timestamp;pressure;altitude;pressure_sealevel;temperature;humidity
49723;BME280;43484;43.608;1.458;2023-04-08T00:01:38;99791.28;;;12.17;100.00
49723;BME280;43484;43.608;1.458;2023-04-08T00:04:06;99800.66;;;12.14;100.00
49723;BME280;43484;43.608;1.458;2023-04-08T00:06:35;99797.31;;;12.19;100.00
49723;BME280;43484;43.608;1.458;2023-04-08T00:09:02;99806.53;;;12.10;100.00
49723;BME280;43484;43.608;1.458;2023-04-08T00:11:29;99800.44;;;12.05;100.00
49723;BME280;43484;43.608;1.458;2023-04-08T00:13:56;99809.72;;;12.00;100.00
49723;BME280;43484;43.608;1.458;2023-04-08T00:16:22;99807.03;;;11.94;100.00
49723;BME280;43484;43.608;1.458;2023-04-08T00:18:49;99805.28;;;11.93;100.00
49723;BME280;43484;43.608;1.458;2023-04-08T00:21:16;99802.75;;;11.94;100.00
49723;BME280;43484;43.608;1.458;2023-04-08T00:23:46;99800.91;;;11.89;100.00
49723;BME280;43484;43.608;1.458;2023-04-08T00:26:12;99799.94;;;11.84;100.00
49723;BME280;43484;43.608;1.458;2023-04-08T00:28:39;99805.81;;;11.80;100.00
49723;BME280;43484;43.608;1.458;2023-04-08T00:31:07;99806.72;;;11.82;100.00
49723;BME280;43484;43.608;1.458;2023-04-08T00:33:33;99802.59;;;11.88;100.00
49723;BME280;43484;43.608;1.458;2023-04-08T00:36:00;99800.94;;;11.90;100.00
49723;BME280;43484;43.608;1.458;2023-04-08T00:38:27;99801.72;;;11.88;100.00
49723;BME280;43484;43.608;1.458;2023-04-08T00:40:53;99805.28;;;11.93;100.00
49723;BME280;43484;43.608;1.458;2023-04-08T00:43:20;99803.56;;;11.92;100.00
49723;BME280;43484;43.608;1.458;2023-04-08T00:45:47;99805.00;;;11.82;100.00
49723;BME280;43484;43.608;1.458;2023-04-08T00:48:14;99804.47;;;11.94;100.00
49723;BME280;43484;43.608;1.458;2023-04-08T00:50:42;99804.97;;;11.81;100.00
49723;BME280;43484;43.608;1.458;2023-04-08T00:53:09;99801.41;;;11.74;100.00
49723;BME280;43484;43.608;1.458;2023-04-08T00:55:36;99812.50;;;11.73;100.00
49723;BME280;43484;43.608;1.458;2023-04-08T00:58:02;99814.13;;;11.70;100.00
49723;BME280;43484;43.608;1.458;2023-04-08T01:00:30;99805.63;;;11.72;100.00
49723;BME280;43484;43.608;1.458;2023-04-08T01:03:04;99810.69;;;11.69;100.00
49723;BME280;43484;43.608;1.458;2023-04-08T01:08:10;99813.16;;;11.65;100.00
49723;BME280;43484;43.608;1.458;2023-04-08T01:10:39;99814.78;;;11.63;100.00
49723;BME280;43484;43.608;1.458;2023-04-08T01:13:11;99804.50;;;11.63;100.00
49723;BME280;43484;43.608;1.458;2023-04-08T01:15:41;99806.13;;;11.59;100.00
49723;BME280;43484;43.608;1.458;2023-04-08T01:18:12;99812.81;;;11.53;100.00
49723;BME280;43484;43.608;1.458;2023-04-08T01:20:41;99812.84;;;11.54;100.00
49723;BME280;43484;43.608;1.458;2023-04-08T01:23:20;99797.44;;;11.54;100.00
49723;BME280;43484;43.608;1.458;2023-04-08T01:25:51;99800.09;;;11.57;100.00
49723;BME280;43484;43.608;1.458;2023-04-08T01:28:20;99799.25;;;11.57;100.00
49723;BME280;43484;43.608;1.458;2023-04-08T01:30:48;99794.69;;;11.45;100.00
49723;BME280;43484;43.608;1.458;2023-04-08T01:33:17;99796.44;;;11.48;100.00
49723;BME280;43484;43.608;1.458;2023-04-08T01:35:45;99801.63;;;11.51;100.00
49723;BME280;43484;43.608;1.458;2023-04-08T01:38:15;99803.19;;;11.44;100.00
49723;BME280;43484;43.608;1.458;2023-04-08T01:40:44;99804.72;;;11.37;100.00
49723;BME280;43484;43.608;1.458;2023-04-08T01:43:13;99808.22;;;11.39;100.00
49723;BME280;43484;43.608;1.458;2023-04-08T01:45:47;99807.06;;;11.28;100.00
49723;BME280;43484;43.608;1.458;2023-04-08T01:48:14;99802.16;;;11.37;100.00
49723;BME280;43484;43.608;1.458;2023-04-08T01:50:43;99808.53;;;11.20;100.00
49723;BME280;43484;43.608;1.458;2023-04-08T01:53:11;99821.53;;;11.26;100.00
49723;BME280;43484;43.608;1.458;2023-04-08T01:55:39;99807.94;;;10.98;100.00
49723;BME280;43484;43.608;1.458;2023-04-08T01:58:10;99806.19;;;10.97;100.00
49723;BME280;43484;43.608;1.458;2023-04-08T02:00:40;99810.41;;;10.93;100.00
49723;BME280;43484;43.608;1.458;2023-04-08T02:03:11;99803.44;;;10.89;100.00
49723;BME280;43484;43.608;1.458;2023-04-08T02:05:39;99802.38;;;10.81;100.00
49723;BME280;43484;43.608;1.458;2023-04-08T02:08:05;99800.41;;;10.73;100.00
49723;BME280;43484;43.608;1.458;2023-04-08T02:10:32;99802.84;;;10.68;100.00
49723;BME280;43484;43.608;1.458;2023-04-08T02:12:59;99802.28;;;10.78;100.00
49723;BME280;43484;43.608;1.458;2023-04-08T02:15:27;99805.50;;;10.71;100.00
49723;BME280;43484;43.608;1.458;2023-04-08T02:18:08;99813.59;;;10.57;100.00
49723;BME280;43484;43.608;1.458;2023-04-08T02:20:37;99813.44;;;10.51;100.00
49723;BME280;43484;43.608;1.458;2023-04-08T02:23:13;99813.22;;;10.43;100.00
49723;BME280;43484;43.608;1.458;2023-04-08T02:25:43;99824.59;;;10.53;100.00
49723;BME280;43484;43.608;1.458;2023-04-08T02:28:11;99819.91;;;10.38;100.00
49723;BME280;43484;43.608;1.458;2023-04-08T02:30:46;99823.81;;;10.27;100.00
49723;BME280;43484;43.608;1.458;2023-04-08T02:33:19;99825.63;;;10.30;100.00
49723;BME280;43484;43.608;1.458;2023-04-08T02:35:47;99827.16;;;10.25;100.00
49723;BME280;43484;43.608;1.458;2023-04-08T02:38:15;99829.81;;;10.28;100.00
49723;BME280;43484;43.608;1.458;2023-04-08T02:40:42;99824.69;;;10.28;100.00
49723;BME280;43484;43.608;1.458;2023-04-08T02:43:08;99816.84;;;10.23;100.00
49723;BME280;43484;43.608;1.458;2023-04-08T02:45:41;99819.53;;;10.26;100.00
49723;BME280;43484;43.608;1.458;2023-04-08T02:48:07;99815.97;;;10.21;100.00
49723;BME280;43484;43.608;1.458;2023-04-08T02:50:34;99821.06;;;10.21;100.00
49723;BME280;43484;43.608;1.458;2023-04-08T02:53:01;99814.91;;;10.15;100.00
49723;BME280;43484;43.608;1.458;2023-04-08T02:55:27;99809.66;;;10.11;100.00
49723;BME280;43484;43.608;1.458;2023-04-08T02:57:54;99810.22;;;10.03;100.00
49723;BME280;43484;43.608;1.458;2023-04-08T03:00:20;99813.47;;;9.97;100.00
49723;BME280;43484;43.608;1.458;2023-04-08T03:02:47;99817.63;;;9.94;100.00
49723;BME280;43484;43.608;1.458;2023-04-08T03:05:14;99813.53;;;9.99;100.00
49723;BME280;43484;43.608;1.458;2023-04-08T03:07:42;99812.66;;;9.98;100.00
49723;BME280;43484;43.608;1.458;2023-04-08T03:10:09;99813.47;;;9.97;100.00
49723;BME280;43484;43.608;1.458;2023-04-08T03:12:35;99820.19;;;9.94;100.00
49723;BME280;43484;43.608;1.458;2023-04-08T03:15:02;99827.34;;;10.04;100.00
49723;BME280;43484;43.608;1.458;2023-04-08T03:17:29;99815.28;;;10.01;100.00
49723;BME280;43484;43.608;1.458;2023-04-08T03:20:02;99815.25;;;10.00;100.00
49723;BME280;43484;43.608;1.458;2023-04-08T03:22:30;99810.91;;;9.97;100.00
49723;BME280;43484;43.608;1.458;2023-04-08T03:24:57;99818.88;;;10.06;100.00
49723;BME280;43484;43.608;1.458;2023-04-08T03:27:24;99822.94;;;10.00;100.00
49723;BME280;43484;43.608;1.458;2023-04-08T03:29:51;99821.38;;;10.05;100.00
49723;BME280;43484;43.608;1.458;2023-04-08T03:32:22;99824.56;;;9.98;100.00
49723;BME280;43484;43.608;1.458;2023-04-08T03:34:52;99820.47;;;10.03;100.00
49723;BME280;43484;43.608;1.458;2023-04-08T03:37:19;99824.72;;;10.02;100.00
49723;BME280;43484;43.608;1.458;2023-04-08T03:39:46;99823.97;;;10.06;100.00
49723;BME280;43484;43.608;1.458;2023-04-08T03:42:13;99822.31;;;10.07;100.00
49723;BME280;43484;43.608;1.458;2023-04-08T03:44:39;99819.75;;;10.07;100.00
49723;BME280;43484;43.608;1.458;2023-04-08T03:47:06;99826.53;;;10.06;100.00
49723;BME280;43484;43.608;1.458;2023-04-08T03:49:33;99822.38;;;10.08;100.00
49723;BME280;43484;43.608;1.458;2023-04-08T03:52:00;99819.06;;;10.11;100.00
49723;BME280;43484;43.608;1.458;2023-04-08T03:54:27;99822.31;;;10.07;100.00
49723;BME280;43484;43.608;1.458;2023-04-08T03:56:54;99817.84;;;10.01;100.00
49723;BME280;43484;43.608;1.458;2023-04-08T03:59:21;99815.25;;;10.00;100.00
49723;BME280;43484;43.608;1.458;2023-04-08T04:01:48;99811.72;;;9.96;100.00
49723;BME280;43484;43.608;1.458;2023-04-08T04:04:16;99813.44;;;9.96;100.00
49723;BME280;43484;43.608;1.458;2023-04-08T04:06:43;99817.50;;;9.89;100.00
49723;BME280;43484;43.608;1.458;2023-04-08T04:09:10;99817.41;;;9.88;100.00
49723;BME280;43484;43.608;1.458;2023-04-08T04:11:36;99813.13;;;9.87;100.00
49723;BME280;43484;43.608;1.458;2023-04-08T04:14:03;99815.66;;;9.85;100.00
49723;BME280;43484;43.608;1.458;2023-04-08T04:16:30;99815.25;;;9.73;100.00
49723;BME280;43484;43.608;1.458;2023-04-08T04:18:58;99821.25;;;9.74;100.00
49723;BME280;43484;43.608;1.458;2023-04-08T04:21:25;99815.28;;;9.75;100.00
49723;BME280;43484;43.608;1.458;2023-04-08T04:23:52;99816.03;;;9.71;100.00
49723;BME280;43484;43.608;1.458;2023-04-08T04:26:19;99816.50;;;9.59;100.00
49723;BME280;43484;43.608;1.458;2023-04-08T04:28:46;99819.34;;;9.68;100.00
49723;BME280;43484;43.608;1.458;2023-04-08T04:31:23;99819.22;;;9.64;100.00
49723;BME280;43484;43.608;1.458;2023-04-08T04:33:54;99819.16;;;9.62;100.00
49723;BME280;43484;43.608;1.458;2023-04-08T04:36:21;99814.66;;;9.55;100.00
49723;BME280;43484;43.608;1.458;2023-04-08T04:38:48;99809.72;;;9.61;100.00
49723;BME280;43484;43.608;1.458;2023-04-08T04:41:16;99822.03;;;9.73;100.00
49723;BME280;43484;43.608;1.458;2023-04-08T04:43:43;99826.22;;;9.69;100.00
49723;BME280;43484;43.608;1.458;2023-04-08T04:46:10;99828.69;;;9.68;100.00
49723;BME280;43484;43.608;1.458;2023-04-08T04:48:36;99829.44;;;9.64;100.00
49723;BME280;43484;43.608;1.458;2023-04-08T04:51:03;99833.69;;;9.63;100.00
49723;BME280;43484;43.608;1.458;2023-04-08T04:53:30;99826.78;;;9.61;100.00
49723;BME280;43484;43.608;1.458;2023-04-08T04:55:57;99830.97;;;9.59;100.00
49723;BME280;43484;43.608;1.458;2023-04-08T04:58:23;99828.84;;;9.46;100.00
49723;BME280;43484;43.608;1.458;2023-04-08T05:00:51;99833.97;;;9.46;100.00
49723;BME280;43484;43.608;1.458;2023-04-08T05:03:17;99837.06;;;9.37;100.00
49723;BME280;43484;43.608;1.458;2023-04-08T05:05:47;99835.53;;;9.42;100.00
49723;BME280;43484;43.608;1.458;2023-04-08T05:08:15;99839.06;;;9.46;100.00
49723;BME280;43484;43.608;1.458;2023-04-08T05:10:42;99848.38;;;9.44;100.00
49723;BME280;43484;43.608;1.458;2023-04-08T05:13:09;99853.56;;;9.47;100.00
49723;BME280;43484;43.608;1.458;2023-04-08T05:15:35;99851.72;;;9.43;100.00
49723;BME280;43484;43.608;1.458;2023-04-08T05:18:02;99853.38;;;9.41;100.00
49723;BME280;43484;43.608;1.458;2023-04-08T05:20:29;99854.91;;;9.36;100.00
49723;BME280;43484;43.608;1.458;2023-04-08T05:22:55;99855.38;;;9.24;100.00
49723;BME280;43484;43.608;1.458;2023-04-08T05:25:22;99855.56;;;9.30;100.00
49723;BME280;43484;43.608;1.458;2023-04-08T05:27:49;99851.38;;;9.32;100.00
49723;BME280;43484;43.608;1.458;2023-04-08T05:30:15;99864.81;;;9.27;100.00
49723;BME280;43484;43.608;1.458;2023-04-08T05:32:42;99874.69;;;9.18;100.00
49723;BME280;43484;43.608;1.458;2023-04-08T05:35:09;99872.72;;;9.09;100.00
49723;BME280;43484;43.608;1.458;2023-04-08T05:37:35;99877.88;;;9.11;100.00
49723;BME280;43484;43.608;1.458;2023-04-08T05:40:02;99881.06;;;9.05;100.00
49723;BME280;43484;43.608;1.458;2023-04-08T05:42:29;99876.91;;;9.07;100.00
49723;BME280;43484;43.608;1.458;2023-04-08T05:44:55;99885.41;;;9.08;100.00
49723;BME280;43484;43.608;1.458;2023-04-08T05:47:22;99896.31;;;9.02;100.00
49723;BME280;43484;43.608;1.458;2023-04-08T05:49:49;99901.16;;;8.96;100.00
49723;BME280;43484;43.608;1.458;2023-04-08T05:52:16;99902.88;;;8.96;100.00
49723;BME280;43484;43.608;1.458;2023-04-08T05:54:43;99900.88;;;9.11;100.00
49723;BME280;43484;43.608;1.458;2023-04-08T05:57:10;99903.13;;;9.03;100.00
49723;BME280;43484;43.608;1.458;2023-04-08T05:59:36;99912.31;;;8.98;100.00
49723;BME280;43484;43.608;1.458;2023-04-08T06:02:03;99914.59;;;8.91;100.00
49723;BME280;43484;43.608;1.458;2023-04-08T06:04:30;99919.94;;;8.97;100.00
49723;BME280;43484;43.608;1.458;2023-04-08T06:06:56;99926.97;;;9.02;100.00
49723;BME280;43484;43.608;1.458;2023-04-08T06:09:25;99930.09;;;8.95;100.00
49723;BME280;43484;43.608;1.458;2023-04-08T06:11:52;99929.31;;;8.74;100.00
49723;BME280;43484;43.608;1.458;2023-04-08T06:14:18;99927.22;;;8.64;100.00
49723;BME280;43484;43.608;1.458;2023-04-08T06:16:46;99936.78;;;8.69;100.00
49723;BME280;43484;43.608;1.458;2023-04-08T06:19:12;99934.16;;;8.90;100.00
49723;BME280;43484;43.608;1.458;2023-04-08T06:21:39;99933.75;;;8.79;100.00
49723;BME280;43484;43.608;1.458;2023-04-08T06:24:06;99933.00;;;8.82;100.00
49723;BME280;43484;43.608;1.458;2023-04-08T06:26:32;99932.81;;;9.00;100.00
49723;BME280;43484;43.608;1.458;2023-04-08T06:28:59;99942.97;;;8.98;100.00
49723;BME280;43484;43.608;1.458;2023-04-08T06:31:27;99941.19;;;8.96;100.00
49723;BME280;43484;43.608;1.458;2023-04-08T06:33:53;99942.19;;;8.99;100.00
49723;BME280;43484;43.608;1.458;2023-04-08T06:36:21;99944.44;;;8.92;100.00
49723;BME280;43484;43.608;1.458;2023-04-08T06:38:47;99952.22;;;8.95;100.00
49723;BME280;43484;43.608;1.458;2023-04-08T06:41:14;99954.28;;;9.05;100.00
49723;BME280;43484;43.608;1.458;2023-04-08T06:43:41;99949.78;;;9.21;100.00
49723;BME280;43484;43.608;1.458;2023-04-08T06:46:08;99958.34;;;9.45;100.00
49723;BME280;43484;43.608;1.458;2023-04-08T06:48:34;99973.03;;;9.27;100.00
49723;BME280;43484;43.608;1.458;2023-04-08T06:51:03;99966.56;;;9.37;100.00
49723;BME280;43484;43.608;1.458;2023-04-08T06:53:29;99962.66;;;9.46;100.00
49723;BME280;43484;43.608;1.458;2023-04-08T06:55:58;99962.09;;;9.55;100.00
49723;BME280;43484;43.608;1.458;2023-04-08T06:58:25;99969.50;;;9.47;100.00
49723;BME280;43484;43.608;1.458;2023-04-08T07:00:53;99962.69;;;9.48;100.00
49723;BME280;43484;43.608;1.458;2023-04-08T07:03:21;99972.91;;;9.48;100.00
49723;BME280;43484;43.608;1.458;2023-04-08T07:05:48;99974.84;;;9.53;100.00
49723;BME280;43484;43.608;1.458;2023-04-08T07:08:15;99978.59;;;9.39;100.00
49723;BME280;43484;43.608;1.458;2023-04-08T07:10:41;99974.44;;;9.43;100.00
49723;BME280;43484;43.608;1.458;2023-04-08T07:13:08;99970.94;;;9.39;100.00
49723;BME280;43484;43.608;1.458;2023-04-08T07:15:35;99975.63;;;9.51;100.00
49723;BME280;43484;43.608;1.458;2023-04-08T07:18:02;99975.31;;;9.43;100.00
49723;BME280;43484;43.608;1.458;2023-04-08T07:20:30;99976.59;;;9.54;100.00
49723;BME280;43484;43.608;1.458;2023-04-08T07:22:58;99972.81;;;9.68;100.00
49723;BME280;43484;43.608;1.458;2023-04-08T07:25:24;99976.03;;;9.63;100.00
49723;BME280;43484;43.608;1.458;2023-04-08T07:27:51;99985.06;;;9.77;100.00
49723;BME280;43484;43.608;1.458;2023-04-08T07:30:18;99987.22;;;9.90;100.00
49723;BME280;43484;43.608;1.458;2023-04-08T07:32:45;99982.31;;;9.96;100.00
49723;BME280;43484;43.608;1.458;2023-04-08T07:35:11;99979.88;;;9.99;100.00
49723;BME280;43484;43.608;1.458;2023-04-08T07:37:38;99981.88;;;10.07;100.00
49723;BME280;43484;43.608;1.458;2023-04-08T07:40:05;99991.44;;;10.13;100.00
49723;BME280;43484;43.608;1.458;2023-04-08T07:42:32;99982.22;;;10.18;100.00
49723;BME280;43484;43.608;1.458;2023-04-08T07:44:59;99992.75;;;10.26;100.00
49723;BME280;43484;43.608;1.458;2023-04-08T07:47:25;99997.19;;;10.31;100.00
49723;BME280;43484;43.608;1.458;2023-04-08T07:49:52;99997.28;;;10.34;100.00
49723;BME280;43484;43.608;1.458;2023-04-08T07:52:19;99998.31;;;10.39;100.00
49723;BME280;43484;43.608;1.458;2023-04-08T07:54:46;100001.06;;;10.45;100.00
49723;BME280;43484;43.608;1.458;2023-04-08T07:57:13;100004.09;;;10.60;100.00
49723;BME280;43484;43.608;1.458;2023-04-08T07:59:40;100004.38;;;10.68;100.00
49723;BME280;43484;43.608;1.458;2023-04-08T08:02:07;100011.44;;;10.75;100.00
49723;BME280;43484;43.608;1.458;2023-04-08T08:04:33;100015.75;;;10.77;100.00
49723;BME280;43484;43.608;1.458;2023-04-08T08:07:00;100009.19;;;10.85;100.00
49723;BME280;43484;43.608;1.458;2023-04-08T08:09:27;100015.13;;;10.84;100.00
49723;BME280;43484;43.608;1.458;2023-04-08T08:11:55;100011.84;;;10.88;100.00
49723;BME280;43484;43.608;1.458;2023-04-08T08:14:22;100011.31;;;10.98;100.00
49723;BME280;43484;43.608;1.458;2023-04-08T08:16:50;100017.44;;;11.03;100.00
49723;BME280;43484;43.608;1.458;2023-04-08T08:19:18;100011.91;;;11.18;100.00
49723;BME280;43484;43.608;1.458;2023-04-08T08:21:44;100017.91;;;11.18;100.00
49723;BME280;43484;43.608;1.458;2023-04-08T08:24:11;100017.06;;;11.19;100.00
49723;BME280;43484;43.608;1.458;2023-04-08T08:26:37;100014.88;;;11.31;100.00
49723;BME280;43484;43.608;1.458;2023-04-08T08:29:04;100014.03;;;11.32;100.00
49723;BME280;43484;43.608;1.458;2023-04-08T08:31:34;100010.66;;;11.33;100.00
49723;BME280;43484;43.608;1.458;2023-04-08T08:34:00;100010.09;;;11.44;100.00
49723;BME280;43484;43.608;1.458;2023-04-08T08:36:28;100005.28;;;11.56;100.00
49723;BME280;43484;43.608;1.458;2023-04-08T08:38:54;100012.56;;;11.69;100.00
49723;BME280;43484;43.608;1.458;2023-04-08T08:41:21;100010.28;;;11.79;100.00
49723;BME280;43484;43.608;1.458;2023-04-08T08:43:48;100017.28;;;11.85;100.00
49723;BME280;43484;43.608;1.458;2023-04-08T08:46:16;100019.34;;;11.98;100.00
49723;BME280;43484;43.608;1.458;2023-04-08T08:48:44;100013.56;;;12.06;100.00
49723;BME280;43484;43.608;1.458;2023-04-08T08:51:12;100017.28;;;12.17;100.00
49723;BME280;43484;43.608;1.458;2023-04-08T08:53:40;100027.88;;;12.29;100.00
49723;BME280;43484;43.608;1.458;2023-04-08T08:56:10;100020.50;;;12.43;100.00
49723;BME280;43484;43.608;1.458;2023-04-08T08:58:40;100028.16;;;12.40;100.00
49723;BME280;43484;43.608;1.458;2023-04-08T09:01:37;100026.22;;;12.66;100.00
49723;BME280;43484;43.608;1.458;2023-04-08T09:04:12;100020.47;;;12.76;100.00
49723;BME280;43484;43.608;1.458;2023-04-08T09:06:42;100023.69;;;12.67;100.00
49723;BME280;43484;43.608;1.458;2023-04-08T09:09:09;100023.75;;;12.70;100.00
49723;BME280;43484;43.608;1.458;2023-04-08T09:11:38;100021.25;;;12.73;100.00
49723;BME280;43484;43.608;1.458;2023-04-08T09:14:16;100021.47;;;12.82;100.00
49723;BME280;43484;43.608;1.458;2023-04-08T09:16:43;100020.97;;;12.98;100.00
49723;BME280;43484;43.608;1.458;2023-04-08T09:19:10;100022.16;;;13.11;100.00
49723;BME280;43484;43.608;1.458;2023-04-08T09:21:38;100019.75;;;13.18;100.00
49723;BME280;43484;43.608;1.458;2023-04-08T09:24:07;100027.75;;;13.30;100.00
49723;BME280;43484;43.608;1.458;2023-04-08T09:26:35;100025.25;;;13.35;100.00
49723;BME280;43484;43.608;1.458;2023-04-08T09:31:43;100027.19;;;13.45;100.00
49723;BME280;43484;43.608;1.458;2023-04-08T09:34:14;100021.38;;;13.55;100.00
49723;BME280;43484;43.608;1.458;2023-04-08T09:36:42;100027.38;;;13.54;100.00
49723;BME280;43484;43.608;1.458;2023-04-08T09:39:12;100023.44;;;13.71;100.00
49723;BME280;43484;43.608;1.458;2023-04-08T09:41:39;100021.91;;;13.80;100.00
49723;BME280;43484;43.608;1.458;2023-04-08T09:44:09;100028.28;;;13.99;100.00
49723;BME280;43484;43.608;1.458;2023-04-08T09:49:12;100028.38;;;14.05;100.00
49723;BME280;43484;43.608;1.458;2023-04-08T09:54:20;100019.72;;;14.02;100.00
49723;BME280;43484;43.608;1.458;2023-04-08T09:56:53;100024.13;;;14.06;100.00
49723;BME280;43484;43.608;1.458;2023-04-08T09:59:26;100024.22;;;14.12;100.00
49723;BME280;43484;43.608;1.458;2023-04-08T10:01:57;100025.28;;;14.23;100.00
49723;BME280;43484;43.608;1.458;2023-04-08T10:04:27;100027.22;;;14.33;100.00
49723;BME280;43484;43.608;1.458;2023-04-08T10:06:57;100017.91;;;14.41;100.00
49723;BME280;43484;43.608;1.458;2023-04-08T10:09:26;100020.56;;;14.47;100.00
49723;BME280;43484;43.608;1.458;2023-04-08T10:11:54;100023.25;;;14.51;100.00
49723;BME280;43484;43.608;1.458;2023-04-08T10:14:21;100025.88;;;14.54;100.00
49723;BME280;43484;43.608;1.458;2023-04-08T10:16:48;100026.53;;;14.43;100.00
49723;BME280;43484;43.608;1.458;2023-04-08T10:19:36;100029.13;;;14.44;100.00
49723;BME280;43484;43.608;1.458;2023-04-08T10:27:44;100024.59;;;14.82;100.00
49723;BME280;43484;43.608;1.458;2023-04-08T10:32:59;100030.78;;;14.93;100.00
49723;BME280;43484;43.608;1.458;2023-04-08T10:35:37;100029.09;;;14.95;100.00
49723;BME280;43484;43.608;1.458;2023-04-08T10:38:07;100025.09;;;15.14;100.00
49723;BME280;43484;43.608;1.458;2023-04-08T10:40:35;100018.41;;;15.29;100.00
49723;BME280;43484;43.608;1.458;2023-04-08T10:43:04;100021.94;;;15.37;98.40
49723;BME280;43484;43.608;1.458;2023-04-08T10:45:31;100018.53;;;15.38;95.60
49723;BME280;43484;43.608;1.458;2023-04-08T10:48:20;100017.56;;;15.30;92.97
49723;BME280;43484;43.608;1.458;2023-04-08T10:50:58;100012.56;;;15.41;88.83
49723;BME280;43484;43.608;1.458;2023-04-08T10:53:32;100019.47;;;15.40;88.47
49723;BME280;43484;43.608;1.458;2023-04-08T10:58:46;100017.13;;;15.61;83.68
49723;BME280;43484;43.608;1.458;2023-04-08T11:01:13;100014.38;;;15.48;84.23
49723;BME280;43484;43.608;1.458;2023-04-08T11:03:41;100016.13;;;15.47;83.98
49723;BME280;43484;43.608;1.458;2023-04-08T11:06:08;100015.03;;;15.35;82.17
49723;BME280;43484;43.608;1.458;2023-04-08T11:08:35;100010.88;;;15.43;82.33
49723;BME280;43484;43.608;1.458;2023-04-08T11:11:03;100008.19;;;15.38;83.91
49723;BME280;43484;43.608;1.458;2023-04-08T11:13:39;100003.84;;;15.34;91.64
49723;BME280;43484;43.608;1.458;2023-04-08T11:16:18;100007.44;;;15.42;86.61
49723;BME280;43484;43.608;1.458;2023-04-08T11:18:45;99998.03;;;15.47;89.41
49723;BME280;43484;43.608;1.458;2023-04-08T11:21:14;100000.00;;;15.69;84.09
49723;BME280;43484;43.608;1.458;2023-04-08T11:23:42;100001.63;;;15.61;80.58
49723;BME280;43484;43.608;1.458;2023-04-08T11:26:09;99993.72;;;16.25;67.89
49723;BME280;43484;43.608;1.458;2023-04-08T11:28:36;99996.38;;;16.34;63.70
49723;BME280;43484;43.608;1.458;2023-04-08T11:31:04;100000.75;;;16.42;63.33
49723;BME280;43484;43.608;1.458;2023-04-08T11:33:31;99988.78;;;16.51;57.80
49723;BME280;43484;43.608;1.458;2023-04-08T11:36:00;99991.53;;;16.71;55.01
49723;BME280;43484;43.608;1.458;2023-04-08T11:38:27;99995.78;;;16.63;58.36
49723;BME280;43484;43.608;1.458;2023-04-08T11:40:58;99993.84;;;16.39;62.18
49723;BME280;43484;43.608;1.458;2023-04-08T11:43:26;99983.50;;;16.38;65.79
49723;BME280;43484;43.608;1.458;2023-04-08T11:45:52;99980.06;;;16.45;63.32
49723;BME280;43484;43.608;1.458;2023-04-08T11:48:19;99988.09;;;16.72;72.25
49723;BME280;43484;43.608;1.458;2023-04-08T11:50:45;99981.31;;;16.93;70.70
49723;BME280;43484;43.608;1.458;2023-04-08T11:53:20;99971.78;;;16.86;70.57
49723;BME280;43484;43.608;1.458;2023-04-08T11:55:47;99982.03;;;16.68;67.05
49723;BME280;43484;43.608;1.458;2023-04-08T11:58:15;99969.88;;;16.57;69.32
49723;BME280;43484;43.608;1.458;2023-04-08T12:00:42;99969.88;;;16.57;73.02
49723;BME280;43484;43.608;1.458;2023-04-08T12:03:10;99964.75;;;16.63;88.42
49723;BME280;43484;43.608;1.458;2023-04-08T12:05:37;99969.09;;;16.70;95.26
49723;BME280;43484;43.608;1.458;2023-04-08T12:08:03;99970.09;;;16.88;74.74
49723;BME280;43484;43.608;1.458;2023-04-08T12:10:30;99964.00;;;16.79;61.66
49723;BME280;43484;43.608;1.458;2023-04-08T12:12:57;99965.69;;;16.78;57.72
49723;BME280;43484;43.608;1.458;2023-04-08T12:15:23;99974.38;;;16.85;59.85
49723;BME280;43484;43.608;1.458;2023-04-08T12:17:50;99967.38;;;16.72;65.00
49723;BME280;43484;43.608;1.458;2023-04-08T12:20:16;99962.22;;;16.73;61.50
49723;BME280;43484;43.608;1.458;2023-04-08T12:22:43;99962.31;;;16.90;60.21
49723;BME280;43484;43.608;1.458;2023-04-08T12:25:10;99956.25;;;16.80;63.82
49723;BME280;43484;43.608;1.458;2023-04-08T12:27:37;99950.28;;;16.95;55.98
49723;BME280;43484;43.608;1.458;2023-04-08T12:30:04;99953.88;;;17.21;52.14
49723;BME280;43484;43.608;1.458;2023-04-08T12:32:31;99955.63;;;17.26;51.37
49723;BME280;43484;43.608;1.458;2023-04-08T12:34:57;99957.34;;;17.23;51.60
49723;BME280;43484;43.608;1.458;2023-04-08T12:37:24;99945.97;;;16.95;47.63
49723;BME280;43484;43.608;1.458;2023-04-08T12:39:51;99952.91;;;16.98;48.01
49723;BME280;43484;43.608;1.458;2023-04-08T12:42:17;99950.44;;;17.25;41.26
49723;BME280;43484;43.608;1.458;2023-04-08T12:44:44;99941.00;;;17.37;40.41
49723;BME280;43484;43.608;1.458;2023-04-08T12:47:10;99943.59;;;17.39;40.39
49723;BME280;43484;43.608;1.458;2023-04-08T12:49:37;99946.13;;;17.22;40.16
49723;BME280;43484;43.608;1.458;2023-04-08T12:52:07;99954.69;;;17.12;37.42
49723;BME280;43484;43.608;1.458;2023-04-08T12:54:33;99949.59;;;17.27;35.22
49723;BME280;43484;43.608;1.458;2023-04-08T12:57:00;99943.53;;;17.21;33.84
49723;BME280;43484;43.608;1.458;2023-04-08T12:59:28;99943.59;;;17.43;32.58
49723;BME280;43484;43.608;1.458;2023-04-08T13:01:54;99948.78;;;17.43;30.98
49723;BME280;43484;43.608;1.458;2023-04-08T13:04:21;99941.00;;;17.36;28.73
49723;BME280;43484;43.608;1.458;2023-04-08T13:06:48;99939.34;;;17.50;29.12
49723;BME280;43484;43.608;1.458;2023-04-08T13:09:15;99938.38;;;17.30;30.94
49723;BME280;43484;43.608;1.458;2023-04-08T13:11:41;99938.34;;;17.24;30.41
49723;BME280;43484;43.608;1.458;2023-04-08T13:14:08;99942.59;;;17.10;36.83
49723;BME280;43484;43.608;1.458;2023-04-08T13:16:35;99937.53;;;17.32;35.71
49723;BME280;43484;43.608;1.458;2023-04-08T13:19:02;99935.91;;;17.48;36.06